createdAt,value
2022-11-17T00:02:10.211Z,10.93
2022-11-17T00:04:37.136Z,11.73
2022-11-17T00:07:04.038Z,10.80
2022-11-17T00:09:30.934Z,11.07
2022-11-17T00:12:22.066Z,11.00
2022-11-17T00:14:49.450Z,11.47
2022-11-17T00:17:16.683Z,9.17
2022-11-17T00:20:02.026Z,9.13
2022-11-17T00:22:31.355Z,9.70
2022-11-17T00:24:58.448Z,8.53
2022-11-17T00:27:25.553Z,8.50
2022-11-17T00:29:52.684Z,8.17
2022-11-17T00:32:38.861Z,7.93
2022-11-17T00:35:06.570Z,8.83
2022-11-17T00:37:59.979Z,8.73
2022-11-17T00:42:53.693Z,8.63
2022-11-17T00:45:20.526Z,8.77
2022-11-17T00:47:48.443Z,8.60
2022-11-17T00:50:15.439Z,9.13
2022-11-17T00:52:42.751Z,8.67
2022-11-17T00:55:09.632Z,9.40
2022-11-17T00:57:36.526Z,8.10
2022-11-17T01:00:04.030Z,9.33
2022-11-17T01:02:30.848Z,8.50
2022-11-17T01:22:48.766Z,9.30
2022-11-17T01:33:23.338Z,8.47
2022-11-17T01:35:50.338Z,8.90
2022-11-17T01:38:17.023Z,9.97
2022-11-17T01:40:43.886Z,9.30
2022-11-17T01:43:10.880Z,8.70
2022-11-17T01:45:40.003Z,8.60
2022-11-17T01:53:31.660Z,8.80
2022-11-17T01:56:01.126Z,9.03
2022-11-17T01:58:29.802Z,9.73
2022-11-17T02:00:56.454Z,8.23
2022-11-17T02:03:24.079Z,8.67
2022-11-17T02:05:55.162Z,9.07
2022-11-17T02:08:23.168Z,8.73
2022-11-17T02:10:51.948Z,8.57
2022-11-17T02:13:19.305Z,9.43
2022-11-17T02:15:45.944Z,8.23
2022-11-17T02:18:12.536Z,8.63
2022-11-17T02:20:38.969Z,9.20
2022-11-17T02:23:18.661Z,9.60
2022-11-17T02:26:08.793Z,9.30
2022-11-17T02:28:37.594Z,9.83
2022-11-17T02:31:26.940Z,9.63
2022-11-17T02:33:56.182Z,9.80
2022-11-17T02:36:37.507Z,10.17
2022-11-17T02:39:12.649Z,10.43
2022-11-17T02:41:41.973Z,9.57
2022-11-17T02:44:08.429Z,11.50
2022-11-17T02:46:38.712Z,11.20
2022-11-17T02:49:07.236Z,10.40
2022-11-17T02:51:34.962Z,11.03
2022-11-17T02:54:01.904Z,11.83
2022-11-17T02:56:28.478Z,12.37
2022-11-17T02:58:57.695Z,12.07
2022-11-17T03:01:43.012Z,12.73
2022-11-17T03:04:28.388Z,12.73
2022-11-17T03:07:04.385Z,12.43
2022-11-17T03:09:39.925Z,12.03
2022-11-17T03:12:10.011Z,13.10
2022-11-17T03:14:42.761Z,13.07
2022-11-17T03:17:32.465Z,13.30
2022-11-17T03:20:03.597Z,13.10
2022-11-17T03:22:38.279Z,13.70
2022-11-17T03:25:06.434Z,12.90
2022-11-17T03:27:38.303Z,13.93
2022-11-17T03:30:07.009Z,13.83
2022-11-17T03:32:36.400Z,12.97
2022-11-17T03:35:11.546Z,13.87
2022-11-17T03:37:39.707Z,12.37
2022-11-17T03:40:08.849Z,12.30
2022-11-17T03:42:37.802Z,13.40
2022-11-17T03:45:14.606Z,13.77
2022-11-17T03:47:42.393Z,13.67
2022-11-17T03:50:38.311Z,13.57
2022-11-17T03:53:05.512Z,12.93
2022-11-17T03:55:46.109Z,13.23
2022-11-17T03:58:15.106Z,12.80
2022-11-17T04:00:42.036Z,12.10
2022-11-17T04:03:08.557Z,12.40
2022-11-17T04:05:35.194Z,12.70
2022-11-17T04:08:01.665Z,12.93
2022-11-17T04:10:28.220Z,13.03
2022-11-17T04:13:13.605Z,11.33
2022-11-17T04:15:59.260Z,12.33
2022-11-17T04:18:26.925Z,11.93
2022-11-17T04:20:54.576Z,11.20
2022-11-17T04:23:21.433Z,12.30
2022-11-17T04:26:07.916Z,12.43
2022-11-17T04:28:38.459Z,12.47
2022-11-17T04:31:05.101Z,13.40
2022-11-17T04:33:32.084Z,12.97
2022-11-17T04:35:58.734Z,13.43
2022-11-17T04:38:25.671Z,13.60
2022-11-17T04:41:11.307Z,14.43
2022-11-17T04:43:39.056Z,12.97
2022-11-17T04:46:05.623Z,13.70
2022-11-17T04:48:32.256Z,12.07
2022-11-17T04:50:58.824Z,12.40
2022-11-17T04:53:25.380Z,11.57
2022-11-17T04:55:52.251Z,12.00
2022-11-17T04:58:18.845Z,13.07
2022-11-17T05:00:45.356Z,12.87
2022-11-17T05:03:12.212Z,11.77
2022-11-17T05:05:38.828Z,12.13
2022-11-17T05:08:05.335Z,12.93
2022-11-17T05:10:50.489Z,11.47
2022-11-17T05:13:22.782Z,12.20
2022-11-17T05:16:08.281Z,12.52
2022-11-17T05:18:34.847Z,12.07
2022-11-17T05:21:04.771Z,12.20
2022-11-17T05:23:50.211Z,11.20
2022-11-17T05:26:16.747Z,12.17
2022-11-17T05:28:43.612Z,12.23
2022-11-17T05:31:10.654Z,12.47
2022-11-17T05:33:38.055Z,12.80
2022-11-17T05:36:04.948Z,11.97
2022-11-17T05:38:31.823Z,12.17
2022-11-17T05:40:58.334Z,11.33
2022-11-17T05:43:24.807Z,12.90
2022-11-17T05:45:51.518Z,13.07
2022-11-17T05:48:18.501Z,12.73
2022-11-17T05:50:44.963Z,12.77
2022-11-17T05:53:11.765Z,12.33
2022-11-17T05:55:38.359Z,11.83
2022-11-17T05:58:07.403Z,12.30
2022-11-17T06:00:34.893Z,13.70
2022-11-17T06:03:04.307Z,11.37
2022-11-17T06:05:30.766Z,11.77
2022-11-17T06:08:00.547Z,12.93
2022-11-17T06:10:27.235Z,13.53
2022-11-17T06:12:53.695Z,12.73
2022-11-17T06:15:20.430Z,11.57
2022-11-17T06:18:13.063Z,12.80
2022-11-17T06:20:41.523Z,12.85
2022-11-17T06:23:09.655Z,13.20
2022-11-17T06:25:36.917Z,12.13
2022-11-17T06:28:05.141Z,12.43
2022-11-17T06:30:31.797Z,10.60
2022-11-17T06:32:58.879Z,11.47
2022-11-17T06:35:25.571Z,11.40
2022-11-17T06:37:52.083Z,13.73
2022-11-17T06:40:18.739Z,11.67
2022-11-17T06:43:03.677Z,11.60
2022-11-17T06:45:34.347Z,13.73
2022-11-17T06:48:00.962Z,11.73
2022-11-17T06:50:27.476Z,11.03
2022-11-17T06:52:57.876Z,11.43
2022-11-17T06:55:24.927Z,10.20
2022-11-17T06:57:53.541Z,10.90
2022-11-17T07:00:20.574Z,9.67
2022-11-17T07:02:47.145Z,10.30
2022-11-17T07:05:13.844Z,10.27
2022-11-17T07:07:40.515Z,10.43
2022-11-17T07:10:07.387Z,11.03
2022-11-17T07:12:34.104Z,10.87
2022-11-17T07:15:00.809Z,10.73
2022-11-17T07:17:27.520Z,10.87
2022-11-17T07:19:54.907Z,10.87
2022-11-17T07:22:21.593Z,10.60
2022-11-17T07:24:48.273Z,10.93
2022-11-17T07:27:14.917Z,9.63
2022-11-17T07:29:41.762Z,10.33
2022-11-17T07:32:10.728Z,10.47
2022-11-17T07:34:37.585Z,10.27
2022-11-17T07:37:04.429Z,9.67
2022-11-17T07:39:31.227Z,10.40
2022-11-17T07:41:57.937Z,10.40
2022-11-17T07:44:24.672Z,9.60
2022-11-17T07:46:51.396Z,9.40
2022-11-17T07:49:17.951Z,8.73
2022-11-17T07:51:44.708Z,9.47
2022-11-17T07:54:11.241Z,9.67
2022-11-17T07:56:37.865Z,8.80
2022-11-17T07:59:04.531Z,8.53
2022-11-17T08:01:31.110Z,9.23
2022-11-17T08:03:58.762Z,9.00
2022-11-17T08:06:25.442Z,8.33
2022-11-17T08:08:52.025Z,8.50
2022-11-17T08:11:19.542Z,8.77
2022-11-17T08:13:46.398Z,8.37
2022-11-17T08:16:13.549Z,8.87
2022-11-17T08:18:41.157Z,8.27
2022-11-17T08:21:13.835Z,8.83
2022-11-17T08:23:41.340Z,8.48
2022-11-17T08:26:09.941Z,8.40
2022-11-17T08:28:37.344Z,8.27
2022-11-17T08:31:05.179Z,8.03
2022-11-17T08:33:32.177Z,8.50
2022-11-17T08:36:02.538Z,9.27
2022-11-17T08:38:30.251Z,8.23
2022-11-17T08:40:57.251Z,9.10
2022-11-17T08:43:24.091Z,7.40
2022-11-17T08:45:50.989Z,7.97
2022-11-17T08:48:17.622Z,7.67
2022-11-17T08:50:44.199Z,7.23
2022-11-17T08:53:15.092Z,7.00
2022-11-17T08:55:41.697Z,5.63
2022-11-17T08:58:08.682Z,6.60
2022-11-17T09:00:35.548Z,7.13
2022-11-17T09:03:05.744Z,6.37
2022-11-17T09:05:32.719Z,5.30
2022-11-17T09:08:15.964Z,6.00
2022-11-17T09:10:49.488Z,8.13
2022-11-17T09:13:18.759Z,7.10
2022-11-17T09:15:45.634Z,6.80
2022-11-17T09:18:12.161Z,6.53
2022-11-17T09:20:44.270Z,6.13
2022-11-17T09:23:12.125Z,7.00
2022-11-17T09:25:38.821Z,6.43
2022-11-17T09:28:06.195Z,6.73
2022-11-17T09:30:32.819Z,6.57
2022-11-17T09:32:59.400Z,6.67
2022-11-17T09:35:26.061Z,6.90
2022-11-17T09:37:52.559Z,6.47
2022-11-17T09:40:19.877Z,6.60
2022-11-17T09:42:46.939Z,7.00
2022-11-17T09:45:13.498Z,6.27
2022-11-17T09:47:41.122Z,7.10
2022-11-17T09:50:22.406Z,7.90
2022-11-17T09:52:55.207Z,7.53
2022-11-17T09:55:31.159Z,6.07
2022-11-17T09:58:07.335Z,6.10
2022-11-17T10:00:34.890Z,7.17
2022-11-17T10:03:01.679Z,6.77
2022-11-17T10:05:33.050Z,6.03
2022-11-17T10:08:03.670Z,7.00
2022-11-17T10:10:33.281Z,6.03
2022-11-17T10:12:59.823Z,7.20
2022-11-17T10:15:29.924Z,6.97
2022-11-17T10:17:56.825Z,6.73
2022-11-17T10:20:23.364Z,7.80
2022-11-17T10:22:50.206Z,7.30
2022-11-17T10:25:22.748Z,6.70
2022-11-17T10:27:53.598Z,6.82
2022-11-17T10:30:20.049Z,7.53
2022-11-17T10:32:51.237Z,8.27
2022-11-17T10:35:19.381Z,7.90
2022-11-17T10:38:04.861Z,8.67
2022-11-17T10:40:32.345Z,6.73
2022-11-17T10:43:05.200Z,6.70
2022-11-17T10:45:32.518Z,7.00
2022-11-17T10:48:09.488Z,5.87
2022-11-17T10:50:36.140Z,6.67
2022-11-17T10:53:21.452Z,6.27
2022-11-17T10:55:53.319Z,6.33
2022-11-17T10:58:24.401Z,7.37
2022-11-17T11:00:57.978Z,7.03
2022-11-17T11:03:32.069Z,6.97
2022-11-17T11:06:06.240Z,6.83
2022-11-17T11:08:33.164Z,6.80
2022-11-17T11:11:00.017Z,6.50
2022-11-17T11:13:31.161Z,6.53
2022-11-17T11:15:57.812Z,6.63
2022-11-17T11:18:24.731Z,6.80
2022-11-17T11:21:14.252Z,6.63
2022-11-17T11:24:01.336Z,5.83
2022-11-17T11:27:20.235Z,6.10
2022-11-17T11:30:32.864Z,6.77
2022-11-17T11:33:34.862Z,6.07
2022-11-17T11:36:47.520Z,5.70
2022-11-17T11:40:03.624Z,5.43
2022-11-17T11:42:37.885Z,6.30
2022-11-17T11:45:34.017Z,6.10
2022-11-17T11:48:12.697Z,5.53
2022-11-17T11:54:50.435Z,6.20
2022-11-17T11:57:57.326Z,5.57
2022-11-17T12:01:03.826Z,6.00
2022-11-17T12:03:50.280Z,6.27
2022-11-17T12:10:28.714Z,5.53
2022-11-17T12:13:37.699Z,6.50
2022-11-17T12:16:57.898Z,6.25
2022-11-17T12:20:09.206Z,5.87
2022-11-17T12:22:56.198Z,5.23
2022-11-17T12:26:02.574Z,6.27
2022-11-17T12:28:49.156Z,4.90
2022-11-17T12:31:44.945Z,6.00
2022-11-17T12:34:37.553Z,4.80
2022-11-17T12:37:46.994Z,6.03
2022-11-17T12:40:52.524Z,5.93
2022-11-17T12:43:22.919Z,5.30
2022-11-17T12:46:12.614Z,5.07
2022-11-17T12:49:19.043Z,6.17
2022-11-17T12:52:25.525Z,6.03
2022-11-17T12:55:32.144Z,6.00
2022-11-17T12:58:44.478Z,5.50
2022-11-17T13:01:30.975Z,5.83
2022-11-17T13:04:17.902Z,7.37
2022-11-17T13:07:22.963Z,6.33
2022-11-17T13:10:29.602Z,6.93
2022-11-17T13:16:58.390Z,6.37
2022-11-17T13:25:37.262Z,7.13
2022-11-17T13:28:05.353Z,6.93
2022-11-17T13:30:32.853Z,8.13
2022-11-17T13:33:00.982Z,8.27
2022-11-17T13:35:31.759Z,7.90
2022-11-17T13:38:17.054Z,8.50
2022-11-17T13:40:46.471Z,7.07
2022-11-17T13:43:14.853Z,8.40
2022-11-17T13:45:43.550Z,7.30
2022-11-17T13:48:30.199Z,7.37
2022-11-17T13:50:56.900Z,7.07
2022-11-17T13:53:24.716Z,7.17
2022-11-17T13:55:51.655Z,6.47
2022-11-17T13:58:26.429Z,6.73
2022-11-17T14:00:54.716Z,6.67
2022-11-17T14:03:47.475Z,6.47
2022-11-17T14:06:14.601Z,6.07
2022-11-17T14:08:42.838Z,6.40
2022-11-17T14:11:12.429Z,5.90
2022-11-17T14:13:44.366Z,6.43
2022-11-17T14:16:20.073Z,5.73
2022-11-17T14:18:55.237Z,5.30
2022-11-17T14:21:22.075Z,5.90
2022-11-17T14:23:48.696Z,6.37
2022-11-17T14:26:22.824Z,5.80
2022-11-17T14:28:49.979Z,5.30
2022-11-17T14:31:16.557Z,4.80
2022-11-17T14:33:43.913Z,4.77
2022-11-17T14:36:13.532Z,4.00
2022-11-17T14:38:40.164Z,4.90
2022-11-17T14:41:06.846Z,4.80
2022-11-17T14:43:33.493Z,4.13
2022-11-17T14:46:00.137Z,4.13
2022-11-17T14:48:26.965Z,4.37
2022-11-17T14:50:59.698Z,4.37
2022-11-17T14:53:26.640Z,4.10
2022-11-17T14:55:53.531Z,4.23
2022-11-17T14:58:20.527Z,3.43
2022-11-17T15:00:47.166Z,3.67
2022-11-17T15:03:13.902Z,3.77
2022-11-17T15:05:45.546Z,3.80
2022-11-17T15:08:12.404Z,4.20
2022-11-17T15:10:42.911Z,3.43
2022-11-17T15:13:09.387Z,3.60
2022-11-17T15:15:35.878Z,3.43
2022-11-17T15:18:42.467Z,3.80
2022-11-17T15:21:10.341Z,4.20
2022-11-17T15:23:37.967Z,3.80
2022-11-17T15:26:05.374Z,3.93
2022-11-17T15:28:32.073Z,4.13
2022-11-17T15:30:58.568Z,4.43
2022-11-17T15:36:58.786Z,5.60
2022-11-17T15:39:25.509Z,3.97
2022-11-17T15:41:52.057Z,4.13
2022-11-17T15:44:27.149Z,4.66
2022-11-17T15:46:53.632Z,5.13
2022-11-17T15:49:20.159Z,4.50
2022-11-17T15:51:46.875Z,4.47
2022-11-17T15:54:18.577Z,4.67
2022-11-17T15:56:47.382Z,5.67
2022-11-17T15:59:14.804Z,5.03
2022-11-17T16:01:41.665Z,5.20
2022-11-17T16:04:09.738Z,5.37
2022-11-17T16:06:37.365Z,5.23
2022-11-17T16:09:04.772Z,4.93
2022-11-17T16:11:31.507Z,5.23
2022-11-17T16:13:58.641Z,5.13
2022-11-17T16:16:26.637Z,5.53
2022-11-17T16:18:53.529Z,5.20
2022-11-17T16:21:20.759Z,5.00
2022-11-17T16:23:48.615Z,5.17
2022-11-17T16:26:16.730Z,5.93
2022-11-17T16:28:43.698Z,6.03
2022-11-17T16:31:14.754Z,6.13
2022-11-17T16:33:41.733Z,5.77
2022-11-17T16:36:08.805Z,5.73
2022-11-17T16:38:35.388Z,5.00
2022-11-17T16:41:02.247Z,5.37
2022-11-17T16:43:28.779Z,5.43
2022-11-17T16:45:55.317Z,6.33
2022-11-17T16:48:21.959Z,5.87
2022-11-17T16:50:49.156Z,9.23
2022-11-17T16:53:15.707Z,6.93
2022-11-17T16:55:42.936Z,7.07
2022-11-17T16:58:09.521Z,8.13
2022-11-17T17:00:36.097Z,8.57
2022-11-17T17:03:02.820Z,9.33
2022-11-17T17:05:29.542Z,8.60
2022-11-17T17:07:56.998Z,8.87
2022-11-17T17:10:24.212Z,7.93
2022-11-17T17:12:50.795Z,9.37
2022-11-17T17:15:17.305Z,8.30
2022-11-17T17:17:44.109Z,8.07
2022-11-17T17:20:10.983Z,9.23
2022-11-17T17:22:37.644Z,9.47
2022-11-17T17:25:04.472Z,10.60
2022-11-17T17:27:31.756Z,10.37
2022-11-17T17:29:58.481Z,9.63
2022-11-17T17:32:25.015Z,9.53
2022-11-17T17:34:51.862Z,8.27
2022-11-17T17:37:18.446Z,9.20
2022-11-17T17:39:45.071Z,9.67
2022-11-17T17:42:12.342Z,9.77
2022-11-17T17:44:38.820Z,9.80
2022-11-17T17:47:05.410Z,11.27
2022-11-17T17:49:32.061Z,10.60
2022-11-17T17:51:58.567Z,10.37
2022-11-17T17:54:25.556Z,9.73
2022-11-17T17:56:52.913Z,10.17
2022-11-17T17:59:19.887Z,11.07
2022-11-17T18:01:47.812Z,10.87
2022-11-17T18:04:16.479Z,11.57
2022-11-17T18:06:46.110Z,10.20
2022-11-17T18:09:14.779Z,10.90
2022-11-17T18:11:50.013Z,10.70
2022-11-17T18:14:20.565Z,11.30
2022-11-17T18:16:47.997Z,10.53
2022-11-17T18:19:15.331Z,12.20
2022-11-17T18:21:43.020Z,13.60
2022-11-17T18:24:10.402Z,10.70
2022-11-17T18:26:37.302Z,12.10
2022-11-17T18:29:08.790Z,11.70
2022-11-17T18:31:36.316Z,12.07
2022-11-17T18:34:05.067Z,14.67
2022-11-17T18:36:31.915Z,12.30
2022-11-17T18:38:58.790Z,17.10
2022-11-17T18:41:26.150Z,15.10
2022-11-17T18:43:52.818Z,13.27
2022-11-17T18:46:21.442Z,12.87
2022-11-17T18:48:49.303Z,14.37
2022-11-17T18:51:19.486Z,13.17
2022-11-17T18:53:46.998Z,12.97
2022-11-17T18:56:14.756Z,12.23
2022-11-17T18:58:42.208Z,12.77
2022-11-17T19:01:16.122Z,11.50
2022-11-17T19:03:43.766Z,11.80
2022-11-17T19:06:10.926Z,13.20
2022-11-17T19:08:38.123Z,12.47
2022-11-17T19:11:06.402Z,12.63
2022-11-17T19:13:34.498Z,11.20
2022-11-17T19:16:09.410Z,10.27
2022-11-17T19:18:36.011Z,11.63
2022-11-17T19:21:04.508Z,11.37
2022-11-17T19:23:34.989Z,11.80
2022-11-17T19:26:05.616Z,13.00
2022-11-17T19:28:32.494Z,11.30
2022-11-17T19:31:03.197Z,11.27
2022-11-17T19:33:33.477Z,8.73
2022-11-17T19:36:04.014Z,9.43
2022-11-17T19:38:33.816Z,9.53
2022-11-17T19:41:13.859Z,9.57
2022-11-17T19:43:45.092Z,11.27
2022-11-17T19:46:16.145Z,9.60
2022-11-17T19:48:43.250Z,8.97
2022-11-17T19:51:17.490Z,9.23
2022-11-17T19:53:44.333Z,8.90
2022-11-17T19:56:10.908Z,8.17
2022-11-17T19:58:37.614Z,8.20
2022-11-17T20:01:14.494Z,8.07
2022-11-17T20:03:41.465Z,8.20
2022-11-17T20:06:09.066Z,7.63
2022-11-17T20:08:35.752Z,8.73
2022-11-17T20:11:09.887Z,9.33
2022-11-17T20:13:37.268Z,8.63
2022-11-17T20:16:10.320Z,8.97
2022-11-17T20:18:38.748Z,9.97
2022-11-17T20:21:05.933Z,9.27
2022-11-17T20:23:33.885Z,8.43
2022-11-17T20:26:04.660Z,10.07
2022-11-17T20:28:32.127Z,9.17
2022-11-17T20:30:58.690Z,9.30
2022-11-17T20:33:25.290Z,8.67
2022-11-17T20:35:51.816Z,10.77
2022-11-17T20:38:18.333Z,11.73
2022-11-17T20:40:44.994Z,10.67
2022-11-17T20:43:11.630Z,10.83
2022-11-17T20:45:38.122Z,11.67
2022-11-17T20:48:04.837Z,10.47
2022-11-17T20:50:32.102Z,11.47
2022-11-17T20:52:58.647Z,11.53
2022-11-17T20:55:25.453Z,11.43
2022-11-17T20:57:51.962Z,12.90
2022-11-17T21:00:18.619Z,13.40
2022-11-17T21:02:45.260Z,13.97
2022-11-17T21:05:11.785Z,13.13
2022-11-17T21:07:38.583Z,15.17
2022-11-17T21:10:05.400Z,12.03
2022-11-17T21:12:32.941Z,10.83
2022-11-17T21:14:59.550Z,11.93
2022-11-17T21:17:44.691Z,10.53
2022-11-17T21:20:11.529Z,9.60
2022-11-17T21:22:38.125Z,10.53
2022-11-17T21:25:04.985Z,10.60
2022-11-17T21:27:31.624Z,9.73
2022-11-17T21:29:58.217Z,9.80
2022-11-17T21:32:24.776Z,10.20
2022-11-17T21:34:51.444Z,10.93
2022-11-17T21:37:18.112Z,10.50
2022-11-17T21:39:44.703Z,10.80
2022-11-17T21:42:11.323Z,10.73
2022-11-17T21:44:39.253Z,9.30
2022-11-17T21:47:06.954Z,9.10
2022-11-17T21:49:33.577Z,8.30
2022-11-17T21:52:00.837Z,8.63
2022-11-17T21:54:27.539Z,10.00
2022-11-17T21:56:54.136Z,9.90
2022-11-17T21:59:20.806Z,10.30
2022-11-17T22:01:47.460Z,9.33
2022-11-17T22:04:15.939Z,9.30
2022-11-17T22:06:42.786Z,9.00
2022-11-17T22:09:09.352Z,8.43
2022-11-17T22:11:36.735Z,8.07
2022-11-17T22:14:04.565Z,7.87
2022-11-17T22:16:31.666Z,8.27
2022-11-17T22:18:58.559Z,7.90
2022-11-17T22:21:25.194Z,8.00
2022-11-17T22:23:51.868Z,8.77
2022-11-17T22:26:18.474Z,9.03
2022-11-17T22:28:45.101Z,9.10
2022-11-17T22:31:11.671Z,8.80
2022-11-17T22:33:40.201Z,9.07
2022-11-17T22:36:06.938Z,8.90
2022-11-17T22:38:33.688Z,8.57
2022-11-17T22:41:01.111Z,9.50
2022-11-17T22:43:27.971Z,9.63
2022-11-17T22:45:54.576Z,10.40
2022-11-17T22:48:21.157Z,10.33
2022-11-17T22:50:47.685Z,9.97
2022-11-17T22:53:14.287Z,9.60
2022-11-17T22:55:40.893Z,9.87
2022-11-17T22:58:07.487Z,11.10
2022-11-17T23:00:34.080Z,12.10
2022-11-17T23:03:00.717Z,11.97
2022-11-17T23:05:27.373Z,11.60
2022-11-17T23:07:53.932Z,12.50
2022-11-17T23:10:20.498Z,12.07
2022-11-17T23:12:47.067Z,12.10
2022-11-17T23:15:13.693Z,13.23
2022-11-17T23:17:40.182Z,12.70
2022-11-17T23:20:07.144Z,11.87
2022-11-17T23:22:34.285Z,11.90
2022-11-17T23:25:00.781Z,12.13
2022-11-17T23:27:27.367Z,11.90
2022-11-17T23:29:54.035Z,11.47
2022-11-17T23:32:20.649Z,9.67
2022-11-17T23:34:47.254Z,10.30
2022-11-17T23:37:13.766Z,9.97
2022-11-17T23:39:40.265Z,10.03
2022-11-17T23:42:06.984Z,9.40
2022-11-17T23:44:33.730Z,8.83
2022-11-17T23:47:00.209Z,8.13
2022-11-17T23:49:26.886Z,7.60
2022-11-17T23:51:53.542Z,6.67
2022-11-17T23:54:20.110Z,6.37
2022-11-17T23:56:49.117Z,6.77
2022-11-17T23:59:15.866Z,6.17
